Time;durP1;ratioP1;P1;durP2;ratioP2;P2;SDS_P1;SDS_P2;PMS_P1;PMS_P2;Temp;Humidity;BMP_temperature;BMP_pressure;BME280_temperature;BME280_humidity;BME280_pressure;Samples;Min_cycle;Max_cycle;Signal;HPM_P1;HPM_P2
2022/04/03 18:20:48;;;;;;;5.60;4.72;;;;;;;4.55;62.17;101952.69;5112207;27;20505;-92
2022/04/03 18:23:14;;;;;;;5.43;4.28;;;;;;;4.50;61.99;101952.75;5104890;28;20028;-88
2022/04/03 18:25:39;;;;;;;6.93;4.47;;;;;;;4.45;62.65;101944.88;5091560;28;20164;-93
2022/04/03 18:28:05;;;;;;;6.95;4.57;;;;;;;4.39;62.85;101947.56;5086076;28;20032;-90
2022/04/03 18:30:30;;;;;;;5.00;4.18;;;;;;;4.28;63.05;101945.91;5082552;28;20158;-89
2022/04/03 18:32:55;;;;;;;5.43;4.50;;;;;;;4.29;63.37;101951.16;5074110;28;20109;-90
2022/04/03 18:35:21;;;;;;;5.65;4.35;;;;;;;4.28;63.35;101951.16;5085865;28;20031;-90
2022/04/03 18:37:47;;;;;;;6.18;4.15;;;;;;;4.15;64.32;101937.19;5091880;28;20043;-89
2022/04/03 18:40:12;;;;;;;5.45;4.25;;;;;;;4.16;64.22;101952.13;5095388;28;20056;-90
2022/04/03 18:42:40;;;;;;;4.90;4.35;;;;;;;4.14;64.34;101961.78;5095338;28;20119;-89
2022/04/03 18:45:06;;;;;;;7.60;4.72;;;;;;;4.11;64.75;101952.16;5094613;28;20062;-90
2022/04/03 18:47:31;;;;;;;10.48;6.07;;;;;;;4.14;64.84;101961.78;5097905;28;20033;-92
2022/04/03 18:49:56;;;;;;;9.23;5.80;;;;;;;4.15;64.60;101972.31;5093203;28;20040;-88
2022/04/03 18:52:22;;;;;;;12.30;7.22;;;;;;;4.16;64.44;101973.19;5096525;28;20082;-88
2022/04/03 18:54:47;;;;;;;12.45;7.10;;;;;;;4.14;64.20;101975.84;5089055;28;20128;-88
2022/04/03 18:57:12;;;;;;;7.57;5.15;;;;;;;4.09;64.67;101977.63;5088338;28;20554;-88
2022/04/03 18:59:38;;;;;;;6.50;4.57;;;;;;;4.08;64.53;101985.53;5096863;28;20027;-88
2022/04/03 19:02:03;;;;;;;6.68;4.75;;;;;;;4.05;64.62;101982.91;5105161;28;20677;-89
2022/04/03 19:04:28;;;;;;;7.07;5.10;;;;;;;3.99;64.32;101979.44;5097092;28;20537;-89
2022/04/03 19:06:54;;;;;;;5.47;3.85;;;;;;;3.96;64.42;101982.09;5096091;28;20020;-89
2022/04/03 19:09:21;;;;;;;4.47;3.75;;;;;;;3.91;64.43;101975.97;5102025;28;20099;-90
2022/04/03 19:11:46;;;;;;;3.80;3.38;;;;;;;3.91;64.15;101981.25;5088519;28;20035;-90
2022/04/03 19:14:16;;;;;;;5.50;3.13;;;;;;;3.87;64.31;101990.03;5100007;28;20024;-87
2022/04/03 19:16:41;;;;;;;6.60;3.28;;;;;;;3.83;64.36;101977.75;5095775;28;20068;-86
2022/04/03 19:19:07;;;;;;;7.22;3.83;;;;;;;3.81;64.16;101983.94;5093571;28;20123;-87
2022/04/03 19:21:32;;;;;;;3.70;3.20;;;;;;;3.75;64.16;101972.53;5091921;28;20024;-86
2022/04/03 19:23:57;;;;;;;6.88;4.15;;;;;;;3.79;64.40;101978.66;5086146;28;20098;-87
2022/04/03 19:26:23;;;;;;;4.18;3.13;;;;;;;3.76;63.96;101973.41;5094419;28;20401;-88
2022/04/03 19:28:49;;;;;;;4.68;3.25;;;;;;;3.69;64.12;101971.69;5088022;28;20042;-88
2022/04/03 19:31:15;;;;;;;7.10;3.55;;;;;;;3.73;64.18;101984.84;5083944;28;20082;-89
2022/04/03 19:33:40;;;;;;;3.25;2.97;;;;;;;3.71;63.88;101980.47;5071971;28;20017;-87
2022/04/03 19:36:07;;;;;;;5.90;3.10;;;;;;;3.68;63.79;101980.50;5079183;28;20033;-88
2022/04/03 19:38:33;;;;;;;4.93;2.97;;;;;;;3.59;64.30;101968.22;5086181;28;20028;-88
2022/04/03 19:40:58;;;;;;;4.95;2.95;;;;;;;3.59;64.15;101977.88;5080957;28;20029;-88
2022/04/03 19:43:24;;;;;;;5.13;2.88;;;;;;;3.56;64.14;101978.78;5079365;28;20043;-89
2022/04/03 19:45:50;;;;;;;4.07;3.00;;;;;;;3.50;64.34;101977.03;5085917;28;21128;-90
2022/04/03 19:48:16;;;;;;;3.40;3.05;;;;;;;3.48;64.50;101972.66;5075963;28;20103;-88
2022/04/03 19:50:41;;;;;;;4.68;2.90;;;;;;;3.45;64.44;101986.69;5074829;28;20493;-89
2022/04/03 19:53:07;;;;;;;4.30;3.00;;;;;;;3.39;65.02;101976.19;5073662;28;20119;-89
2022/04/03 19:55:34;;;;;;;6.68;3.42;;;;;;;3.33;65.17;101977.97;5076268;28;20035;-89
2022/04/03 19:58:00;;;;;;;6.90;5.00;;;;;;;3.30;65.32;101980.59;5077777;28;20085;-89
2022/04/03 20:00:25;;;;;;;8.13;5.45;;;;;;;3.28;65.39;101982.38;5083170;28;20037;-87
2022/04/03 20:02:51;;;;;;;8.18;5.20;;;;;;;3.24;65.92;101986.75;5090913;28;20078;-87
2022/04/03 20:05:17;;;;;;;6.35;4.30;;;;;;;3.21;66.26;101992.91;5074516;28;20013;-88
2022/04/03 20:07:42;;;;;;;8.52;4.03;;;;;;;3.15;66.48;101981.53;5077186;28;20031;-87
2022/04/03 20:10:08;;;;;;;5.40;4.07;;;;;;;3.11;66.41;101975.38;5075246;28;20415;-88
2022/04/03 20:12:34;;;;;;;5.65;3.38;;;;;;;3.15;66.40;101978.91;5073066;28;20029;-88
2022/04/03 20:15:00;;;;;;;4.47;3.67;;;;;;;3.11;67.02;101971.88;5078303;28;20036;-88
2022/04/03 20:17:31;;;;;;;3.90;3.55;;;;;;;3.08;67.26;101980.66;5083715;28;20020;-87
2022/04/03 20:19:57;;;;;;;6.85;4.00;;;;;;;3.05;67.29;101977.13;5080409;28;20052;-89
2022/04/03 20:22:23;;;;;;;5.63;4.10;;;;;;;3.02;67.58;101977.16;5075574;28;20032;-89
2022/04/03 20:24:48;;;;;;;5.22;4.10;;;;;;;2.98;67.75;101973.66;5073604;28;20041;-89
2022/04/03 20:27:13;;;;;;;7.00;4.75;;;;;;;2.95;68.34;101969.28;5074397;28;20039;-87
2022/04/03 20:29:39;;;;;;;5.93;4.10;;;;;;;2.94;67.96;101971.91;5073084;28;20033;-88
2022/04/03 20:32:05;;;;;;;5.30;4.15;;;;;;;2.89;68.42;101964.03;5074454;28;20051;-88
2022/04/03 20:34:30;;;;;;;6.03;3.90;;;;;;;2.83;68.52;101957.91;5072948;28;20505;-89
2022/04/03 20:36:56;;;;;;;5.43;3.90;;;;;;;2.79;68.98;101957.00;5076249;28;20098;-89
2022/04/03 20:39:21;;;;;;;9.10;3.95;;;;;;;2.77;69.46;101964.03;5082654;28;20032;-87
2022/04/03 20:41:46;;;;;;;4.93;3.95;;;;;;;2.64;69.73;101947.41;5073794;28;20025;-87
2022/04/03 20:44:16;;;;;;;5.90;3.55;;;;;;;2.68;69.97;101964.06;5069660;28;20039;-87
2022/04/03 20:46:44;;;;;;;7.40;4.40;;;;;;;2.62;70.24;101956.16;5071881;28;20025;-87
2022/04/03 20:49:10;;;;;;;7.20;4.75;;;;;;;2.58;70.34;101955.28;5072639;28;20473;-88
2022/04/03 20:51:35;;;;;;;5.80;4.05;;;;;;;2.49;70.42;101948.28;5067297;28;20044;-87
2022/04/03 20:54:00;;;;;;;5.57;4.10;;;;;;;2.53;70.79;101956.16;5064998;28;20036;-91
2022/04/03 20:56:26;;;;;;;9.00;5.00;;;;;;;2.53;71.39;101951.78;5071550;28;20033;-88
2022/04/03 20:58:51;;;;;;;7.07;5.35;;;;;;;2.54;71.71;101955.28;5076530;28;20047;-89
2022/04/03 21:01:16;;;;;;;6.55;4.07;;;;;;;2.50;71.45;101950.00;5074889;28;20024;-90
2022/04/03 21:03:41;;;;;;;5.13;4.45;;;;;;;2.43;71.66;101947.41;5070792;28;20028;-88
2022/04/03 21:06:07;;;;;;;8.02;4.50;;;;;;;2.36;71.51;101938.63;5073843;28;20074;-88
2022/04/03 21:08:33;;;;;;;5.22;4.18;;;;;;;2.34;72.42;101944.75;5072832;28;20656;-88
2022/04/03 21:10:58;;;;;;;6.93;4.45;;;;;;;2.29;72.69;101938.63;5069307;28;20500;-88
2022/04/03 21:13:24;;;;;;;5.40;4.47;;;;;;;2.25;72.63;101930.72;5071313;28;20032;-88
2022/04/03 21:15:49;;;;;;;7.63;4.60;;;;;;;2.25;72.65;101938.63;5075096;28;20017;-88
2022/04/03 21:18:17;;;;;;;6.45;4.90;;;;;;;2.12;72.75;101923.72;5074022;28;20029;-89
2022/04/03 21:20:43;;;;;;;4.85;4.35;;;;;;;2.18;73.02;101936.00;5073707;28;20037;-88
2022/04/03 21:23:09;;;;;;;8.57;5.03;;;;;;;2.14;73.64;101923.75;5077388;28;20024;-89
2022/04/03 21:25:34;;;;;;;10.00;5.30;;;;;;;2.10;73.71;101916.75;5077399;28;20031;-88
2022/04/03 21:28:00;;;;;;;8.23;4.82;;;;;;;2.11;73.14;101921.97;5070817;28;20020;-88
2022/04/03 21:30:25;;;;;;;6.90;4.32;;;;;;;2.06;73.51;101926.34;5073366;28;20074;-88
2022/04/03 21:32:55;;;;;;;6.30;4.38;;;;;;;2.06;73.62;101928.97;5077266;28;20025;-88
2022/04/03 21:35:21;;;;;;;6.95;5.13;;;;;;;2.04;73.81;101924.59;5077161;28;20040;-88
2022/04/03 21:37:46;;;;;;;8.82;5.35;;;;;;;2.01;74.12;101920.22;5079136;28;20036;-88
2022/04/03 21:40:12;;;;;;;6.22;4.70;;;;;;;1.96;74.03;101909.69;5073605;28;20036;-88
2022/04/03 21:42:37;;;;;;;5.90;4.35;;;;;;;1.96;74.26;101914.06;5072009;28;20044;-89
2022/04/03 21:45:02;;;;;;;6.20;4.00;;;;;;;1.94;74.57;101916.72;5073009;28;20123;-88
2022/04/03 21:47:28;;;;;;;5.78;4.05;;;;;;;1.89;74.33;101907.06;5080231;28;20477;-89
2022/04/03 21:49:53;;;;;;;7.85;4.82;;;;;;;1.88;74.76;101905.31;5073997;28;20024;-88
2022/04/03 21:52:19;;;;;;;7.95;6.35;;;;;;;1.84;75.04;101900.91;5072279;28;20040;-89
2022/04/03 21:54:44;;;;;;;6.07;5.32;;;;;;;1.83;75.15;101901.78;5097064;28;20029;-89
2022/04/03 21:57:09;;;;;;;7.53;4.82;;;;;;;1.84;74.63;101912.31;5083006;28;20098;-90
2022/04/03 21:59:35;;;;;;;5.88;4.70;;;;;;;1.81;75.03;101904.44;5077383;28;20032;-89
2022/04/03 22:02:00;;;;;;;6.45;4.90;;;;;;;1.72;75.28;101899.16;5075180;28;20419;-88
2022/04/03 22:04:25;;;;;;;7.43;5.00;;;;;;;1.68;75.28;101898.28;5066208;28;20028;-89
2022/04/03 22:06:51;;;;;;;7.38;5.47;;;;;;;1.67;75.29;101901.78;5074546;28;20039;-89
2022/04/03 22:09:16;;;;;;;6.90;5.32;;;;;;;1.65;75.90;101906.13;5072947;28;20033;-89
2022/04/03 22:11:41;;;;;;;8.70;5.60;;;;;;;1.60;75.79;101897.38;5070483;28;20055;-89
2022/04/03 22:14:07;;;;;;;10.77;6.53;;;;;;;1.62;75.97;101900.00;5068792;28;20478;-89
2022/04/03 22:16:32;;;;;;;10.88;6.80;;;;;;;1.58;76.44;101900.84;5069794;28;20033;-88
2022/04/03 22:18:58;;;;;;;9.30;6.30;;;;;;;1.57;76.41;101904.38;5072551;28;20056;-89
2022/04/03 22:21:24;;;;;;;10.20;6.45;;;;;;;1.54;76.15;101899.97;5071128;28;20081;-89
2022/04/03 22:23:49;;;;;;;9.63;6.05;;;;;;;1.46;76.54;101901.69;5069490;28;20040;-89
2022/04/03 22:26:15;;;;;;;9.52;7.00;;;;;;;1.42;76.69;101895.59;5068633;28;20107;-88
2022/04/03 22:28:40;;;;;;;11.40;7.35;;;;;;;1.42;76.59;101903.44;5071886;28;20259;-88
2022/04/03 22:31:07;;;;;;;9.15;6.82;;;;;;;1.35;76.74;101896.41;5072123;28;21708;-87
2022/04/03 22:33:32;;;;;;;10.85;7.72;;;;;;;1.33;76.83;101894.66;5070510;28;20033;-89
2022/04/03 22:35:59;;;;;;;10.85;7.80;;;;;;;1.33;76.95;101895.53;5072647;28;20020;-89
2022/04/03 22:38:24;;;;;;;9.65;7.10;;;;;;;1.31;76.95;101897.28;5079318;28;20024;-88
2022/04/03 22:40:50;;;;;;;9.25;6.43;;;;;;;1.31;77.83;101891.16;5081218;28;20032;-88
2022/04/03 22:43:16;;;;;;;9.85;6.70;;;;;;;1.31;77.40;101884.16;5075329;28;20032;-88
2022/04/03 22:45:41;;;;;;;9.32;6.07;;;;;;;1.31;77.24;101880.66;5078789;28;20080;-89
2022/04/03 22:48:07;;;;;;;9.77;6.53;;;;;;;1.29;77.70;101885.00;5070656;28;20532;-88
2022/04/03 22:50:34;;;;;;;8.70;6.20;;;;;;;1.30;77.65;101881.53;5079523;28;20036;-88
2022/04/03 22:53:04;;;;;;;8.50;5.95;;;;;;;1.27;77.64;101868.41;5072511;28;20384;-88
2022/04/03 22:55:30;;;;;;;7.47;5.68;;;;;;;1.28;77.79;101871.03;5080774;28;20428;-88
2022/04/03 22:57:55;;;;;;;8.48;5.72;;;;;;;1.28;77.72;101867.53;5075041;28;20024;-88
2022/04/03 23:00:21;;;;;;;7.57;6.13;;;;;;;1.27;77.96;101869.28;5074636;28;20090;-88
2022/04/03 23:02:46;;;;;;;9.60;6.28;;;;;;;1.23;78.08;101864.91;5072209;28;20013;-88
2022/04/03 23:05:12;;;;;;;8.55;5.93;;;;;;;1.21;77.99;101862.28;5079481;28;20095;-89
2022/04/03 23:07:38;;;;;;;7.80;6.25;;;;;;;1.21;78.05;101864.00;5082110;28;20033;-87
2022/04/03 23:10:05;;;;;;;6.85;5.80;;;;;;;1.15;78.37;101858.75;5075553;28;20180;-89
2022/04/03 23:12:31;;;;;;;8.60;6.28;;;;;;;1.12;78.24;101851.72;5071114;28;20064;-88
2022/04/03 23:14:56;;;;;;;7.93;5.88;;;;;;;1.12;77.75;101850.84;5085267;28;20036;-88
2022/04/03 23:17:21;;;;;;;9.43;6.53;;;;;;;1.10;78.00;101852.59;5093695;28;20020;-88
2022/04/03 23:19:47;;;;;;;8.85;6.43;;;;;;;1.07;78.14;101845.59;5077141;28;20053;-90
2022/04/03 23:22:12;;;;;;;8.38;6.78;;;;;;;1.04;78.12;101840.31;5075349;28;20358;-88
2022/04/03 23:24:37;;;;;;;8.50;6.13;;;;;;;1.02;78.26;101844.72;5077141;28;20033;-88
2022/04/03 23:27:03;;;;;;;10.77;6.70;;;;;;;0.92;78.01;101828.06;5078022;28;20028;-88
2022/04/03 23:29:28;;;;;;;10.02;6.68;;;;;;;0.98;78.12;101848.19;5080236;28;20044;-88
2022/04/03 23:31:54;;;;;;;8.68;5.70;;;;;;;0.83;78.38;101816.66;5074803;28;20054;-88
2022/04/03 23:34:20;;;;;;;7.80;6.18;;;;;;;0.84;78.61;101827.16;5068651;28;20154;-89
2022/04/03 23:36:45;;;;;;;9.73;6.55;;;;;;;0.86;78.88;101835.00;5075504;28;20036;-89
2022/04/03 23:39:11;;;;;;;9.15;5.82;;;;;;;0.82;78.89;101828.00;5077777;28;20197;-88
2022/04/03 23:41:36;;;;;;;7.22;6.03;;;;;;;0.78;79.06;101831.47;5075960;28;20047;-88
2022/04/03 23:44:02;;;;;;;6.40;5.75;;;;;;;0.73;78.74;101813.13;5074958;28;20036;-88
2022/04/03 23:46:30;;;;;;;7.43;6.13;;;;;;;0.72;78.66;101817.47;5084968;28;20012;-88
2022/04/03 23:48:55;;;;;;;8.18;6.15;;;;;;;0.66;79.03;101806.09;5088430;28;20036;-88
2022/04/03 23:51:20;;;;;;;9.77;5.97;;;;;;;0.68;78.95;101813.09;5075588;28;20513;-88
2022/04/03 23:53:46;;;;;;;10.85;6.40;;;;;;;0.63;79.52;101799.09;5061585;28;20044;-88
2022/04/03 23:56:12;;;;;;;9.95;6.28;;;;;;;0.56;79.19;101792.06;5073649;28;20115;-88
2022/04/03 23:58:37;;;;;;;12.40;6.43;;;;;;;0.57;79.32;101803.41;5075915;28;20055;-88
